sensor_id;sensor_type;location;lat;lon;timestamp;P1;durP1;ratioP1;P2;durP2;ratioP2
33074;SDS011;19433;51.292;6.868;2023-10-19T00:01:55;8.63;;;7.87;;
33074;SDS011;19433;51.292;6.868;2023-10-19T00:04:21;8.23;;;7.53;;
33074;SDS011;19433;51.292;6.868;2023-10-19T00:06:47;9.17;;;8.47;;
33074;SDS011;19433;51.292;6.868;2023-10-19T00:09:33;8.80;;;8.00;;
33074;SDS011;19433;51.292;6.868;2023-10-19T00:12:22;8.70;;;7.90;;
33074;SDS011;19433;51.292;6.868;2023-10-19T00:14:48;10.30;;;8.53;;
33074;SDS011;19433;51.292;6.868;2023-10-19T00:17:15;8.83;;;8.20;;
33074;SDS011;19433;51.292;6.868;2023-10-19T00:19:40;9.23;;;8.53;;
33074;SDS011;19433;51.292;6.868;2023-10-19T00:22:22;10.20;;;9.13;;
33074;SDS011;19433;51.292;6.868;2023-10-19T00:24:49;9.00;;;8.30;;
33074;SDS011;19433;51.292;6.868;2023-10-19T00:27:15;9.53;;;8.63;;
33074;SDS011;19433;51.292;6.868;2023-10-19T00:29:42;9.20;;;8.50;;
33074;SDS011;19433;51.292;6.868;2023-10-19T00:32:14;9.63;;;8.80;;
33074;SDS011;19433;51.292;6.868;2023-10-19T00:34:40;9.80;;;9.00;;
33074;SDS011;19433;51.292;6.868;2023-10-19T00:37:06;11.03;;;10.03;;
33074;SDS011;19433;51.292;6.868;2023-10-19T00:39:35;10.53;;;9.53;;
33074;SDS011;19433;51.292;6.868;2023-10-19T00:42:15;9.60;;;8.90;;
33074;SDS011;19433;51.292;6.868;2023-10-19T00:44:45;10.63;;;9.60;;
33074;SDS011;19433;51.292;6.868;2023-10-19T00:47:15;10.40;;;9.50;;
33074;SDS011;19433;51.292;6.868;2023-10-19T00:49:44;10.53;;;9.73;;
33074;SDS011;19433;51.292;6.868;2023-10-19T00:52:12;10.63;;;9.83;;
33074;SDS011;19433;51.292;6.868;2023-10-19T00:54:45;10.70;;;9.80;;
33074;SDS011;19433;51.292;6.868;2023-10-19T00:57:11;10.30;;;9.40;;
33074;SDS011;19433;51.292;6.868;2023-10-19T00:59:37;11.80;;;10.00;;
33074;SDS011;19433;51.292;6.868;2023-10-19T01:02:15;10.60;;;9.70;;
33074;SDS011;19433;51.292;6.868;2023-10-19T01:04:44;10.57;;;9.63;;
33074;SDS011;19433;51.292;6.868;2023-10-19T01:07:12;10.30;;;9.03;;
33074;SDS011;19433;51.292;6.868;2023-10-19T01:09:46;10.43;;;9.53;;
33074;SDS011;19433;51.292;6.868;2023-10-19T01:12:11;9.23;;;8.53;;
33074;SDS011;19433;51.292;6.868;2023-10-19T01:15:02;10.07;;;9.07;;
33074;SDS011;19433;51.292;6.868;2023-10-19T01:17:51;11.10;;;10.00;;
33074;SDS011;19433;51.292;6.868;2023-10-19T01:20:23;10.93;;;9.93;;
33074;SDS011;19433;51.292;6.868;2023-10-19T01:25:54;10.00;;;9.10;;
33074;SDS011;19433;51.292;6.868;2023-10-19T01:28:59;10.40;;;9.50;;
33074;SDS011;19433;51.292;6.868;2023-10-19T01:31:34;10.77;;;9.77;;
33074;SDS011;19433;51.292;6.868;2023-10-19T01:34:04;11.20;;;10.20;;
33074;SDS011;19433;51.292;6.868;2023-10-19T01:36:34;10.63;;;9.57;;
33074;SDS011;19433;51.292;6.868;2023-10-19T01:39:07;10.93;;;9.97;;
33074;SDS011;19433;51.292;6.868;2023-10-19T01:41:36;9.93;;;9.03;;
33074;SDS011;19433;51.292;6.868;2023-10-19T01:44:06;10.60;;;9.50;;
33074;SDS011;19433;51.292;6.868;2023-10-19T01:46:33;10.60;;;9.70;;
33074;SDS011;19433;51.292;6.868;2023-10-19T01:49:00;11.50;;;9.93;;
33074;SDS011;19433;51.292;6.868;2023-10-19T01:51:28;10.83;;;10.03;;
33074;SDS011;19433;51.292;6.868;2023-10-19T01:53:55;10.60;;;9.70;;
33074;SDS011;19433;51.292;6.868;2023-10-19T01:56:21;10.60;;;9.70;;
33074;SDS011;19433;51.292;6.868;2023-10-19T01:58:48;10.20;;;9.40;;
33074;SDS011;19433;51.292;6.868;2023-10-19T02:01:16;10.70;;;9.80;;
33074;SDS011;19433;51.292;6.868;2023-10-19T02:03:46;9.27;;;8.47;;
33074;SDS011;19433;51.292;6.868;2023-10-19T02:06:19;10.30;;;9.50;;
33074;SDS011;19433;51.292;6.868;2023-10-19T02:08:51;9.30;;;8.60;;
33074;SDS011;19433;51.292;6.868;2023-10-19T02:11:22;11.27;;;10.03;;
33074;SDS011;19433;51.292;6.868;2023-10-19T02:13:51;9.80;;;9.00;;
33074;SDS011;19433;51.292;6.868;2023-10-19T02:16:19;8.97;;;8.13;;
33074;SDS011;19433;51.292;6.868;2023-10-19T02:18:47;9.60;;;8.77;;
33074;SDS011;19433;51.292;6.868;2023-10-19T02:21:14;9.03;;;8.27;;
33074;SDS011;19433;51.292;6.868;2023-10-19T02:23:39;9.17;;;8.47;;
33074;SDS011;19433;51.292;6.868;2023-10-19T02:26:08;9.63;;;8.90;;
33074;SDS011;19433;51.292;6.868;2023-10-19T02:28:34;8.40;;;7.80;;
33074;SDS011;19433;51.292;6.868;2023-10-19T02:31:02;8.53;;;7.60;;
33074;SDS011;19433;51.292;6.868;2023-10-19T02:33:40;8.80;;;8.10;;
33074;SDS011;19433;51.292;6.868;2023-10-19T02:36:10;7.40;;;6.80;;
33074;SDS011;19433;51.292;6.868;2023-10-19T02:38:38;9.30;;;8.40;;
33074;SDS011;19433;51.292;6.868;2023-10-19T02:41:08;6.93;;;6.40;;
33074;SDS011;19433;51.292;6.868;2023-10-19T02:43:35;7.70;;;6.90;;
33074;SDS011;19433;51.292;6.868;2023-10-19T02:46:00;8.13;;;7.50;;
33074;SDS011;19433;51.292;6.868;2023-10-19T02:48:27;7.47;;;6.80;;
33074;SDS011;19433;51.292;6.868;2023-10-19T02:50:53;7.70;;;7.10;;
33074;SDS011;19433;51.292;6.868;2023-10-19T02:53:18;8.63;;;7.97;;
33074;SDS011;19433;51.292;6.868;2023-10-19T02:55:44;6.90;;;6.47;;
33074;SDS011;19433;51.292;6.868;2023-10-19T02:58:09;6.70;;;6.30;;
33074;SDS011;19433;51.292;6.868;2023-10-19T03:00:36;8.03;;;7.23;;
33074;SDS011;19433;51.292;6.868;2023-10-19T03:03:02;7.20;;;6.70;;
33074;SDS011;19433;51.292;6.868;2023-10-19T03:05:30;7.73;;;7.13;;
33074;SDS011;19433;51.292;6.868;2023-10-19T03:07:55;7.30;;;6.80;;
33074;SDS011;19433;51.292;6.868;2023-10-19T03:10:21;6.47;;;5.97;;
33074;SDS011;19433;51.292;6.868;2023-10-19T03:12:59;7.60;;;6.93;;
33074;SDS011;19433;51.292;6.868;2023-10-19T03:15:29;6.77;;;6.17;;
33074;SDS011;19433;51.292;6.868;2023-10-19T03:17:58;6.60;;;6.00;;
33074;SDS011;19433;51.292;6.868;2023-10-19T03:20:23;7.77;;;7.17;;
33074;SDS011;19433;51.292;6.868;2023-10-19T03:22:51;6.53;;;6.03;;
33074;SDS011;19433;51.292;6.868;2023-10-19T03:25:17;7.53;;;6.83;;
33074;SDS011;19433;51.292;6.868;2023-10-19T03:28:00;6.73;;;5.97;;
33074;SDS011;19433;51.292;6.868;2023-10-19T03:30:36;7.87;;;5.57;;
33074;SDS011;19433;51.292;6.868;2023-10-19T03:33:03;6.20;;;5.60;;
33074;SDS011;19433;51.292;6.868;2023-10-19T03:35:30;6.50;;;6.00;;
33074;SDS011;19433;51.292;6.868;2023-10-19T03:37:55;5.40;;;5.00;;
33074;SDS011;19433;51.292;6.868;2023-10-19T03:40:23;5.03;;;4.60;;
33074;SDS011;19433;51.292;6.868;2023-10-19T03:42:57;6.33;;;5.73;;
33074;SDS011;19433;51.292;6.868;2023-10-19T03:45:23;6.10;;;5.60;;
33074;SDS011;19433;51.292;6.868;2023-10-19T03:47:50;5.90;;;5.40;;
33074;SDS011;19433;51.292;6.868;2023-10-19T03:50:18;5.10;;;4.73;;
33074;SDS011;19433;51.292;6.868;2023-10-19T03:52:47;5.30;;;4.80;;
33074;SDS011;19433;51.292;6.868;2023-10-19T03:55:12;5.10;;;4.70;;
33074;SDS011;19433;51.292;6.868;2023-10-19T03:57:43;4.60;;;4.23;;
33074;SDS011;19433;51.292;6.868;2023-10-19T04:00:12;4.70;;;4.40;;
33074;SDS011;19433;51.292;6.868;2023-10-19T04:02:44;4.40;;;4.10;;
33074;SDS011;19433;51.292;6.868;2023-10-19T04:05:10;4.70;;;4.40;;
33074;SDS011;19433;51.292;6.868;2023-10-19T04:07:39;5.00;;;4.33;;
33074;SDS011;19433;51.292;6.868;2023-10-19T04:10:06;6.07;;;4.60;;
33074;SDS011;19433;51.292;6.868;2023-10-19T04:12:32;5.83;;;5.33;;
33074;SDS011;19433;51.292;6.868;2023-10-19T04:15:00;4.60;;;4.30;;
33074;SDS011;19433;51.292;6.868;2023-10-19T04:17:44;5.33;;;5.03;;
33074;SDS011;19433;51.292;6.868;2023-10-19T04:20:11;5.30;;;4.33;;
33074;SDS011;19433;51.292;6.868;2023-10-19T04:22:40;4.03;;;3.67;;
33074;SDS011;19433;51.292;6.868;2023-10-19T04:25:05;3.70;;;3.43;;
33074;SDS011;19433;51.292;6.868;2023-10-19T04:27:31;4.50;;;4.20;;
33074;SDS011;19433;51.292;6.868;2023-10-19T04:30:02;4.70;;;4.30;;
33074;SDS011;19433;51.292;6.868;2023-10-19T04:32:27;4.50;;;4.10;;
33074;SDS011;19433;51.292;6.868;2023-10-19T04:34:53;4.07;;;3.87;;
33074;SDS011;19433;51.292;6.868;2023-10-19T04:37:18;4.47;;;4.07;;
33074;SDS011;19433;51.292;6.868;2023-10-19T04:39:44;4.83;;;4.00;;
33074;SDS011;19433;51.292;6.868;2023-10-19T04:42:11;4.27;;;3.87;;
33074;SDS011;19433;51.292;6.868;2023-10-19T04:44:37;4.43;;;4.03;;
33074;SDS011;19433;51.292;6.868;2023-10-19T04:47:02;4.10;;;3.80;;
33074;SDS011;19433;51.292;6.868;2023-10-19T04:49:27;3.83;;;3.53;;
33074;SDS011;19433;51.292;6.868;2023-10-19T04:51:53;3.60;;;3.30;;
33074;SDS011;19433;51.292;6.868;2023-10-19T04:54:18;5.83;;;3.50;;
33074;SDS011;19433;51.292;6.868;2023-10-19T04:56:44;4.50;;;4.03;;
33074;SDS011;19433;51.292;6.868;2023-10-19T04:59:09;5.50;;;4.10;;
33074;SDS011;19433;51.292;6.868;2023-10-19T05:01:34;3.90;;;3.60;;
33074;SDS011;19433;51.292;6.868;2023-10-19T05:04:00;4.17;;;3.83;;
33074;SDS011;19433;51.292;6.868;2023-10-19T05:06:26;3.73;;;3.40;;
33074;SDS011;19433;51.292;6.868;2023-10-19T05:08:58;3.57;;;3.27;;
33074;SDS011;19433;51.292;6.868;2023-10-19T05:11:24;5.00;;;3.30;;
33074;SDS011;19433;51.292;6.868;2023-10-19T05:13:49;4.40;;;4.00;;
33074;SDS011;19433;51.292;6.868;2023-10-19T05:16:14;4.60;;;3.90;;
33074;SDS011;19433;51.292;6.868;2023-10-19T05:18:40;4.53;;;4.13;;
33074;SDS011;19433;51.292;6.868;2023-10-19T05:21:05;5.03;;;4.60;;
33074;SDS011;19433;51.292;6.868;2023-10-19T05:23:31;4.40;;;4.00;;
33074;SDS011;19433;51.292;6.868;2023-10-19T05:26:00;7.20;;;4.50;;
33074;SDS011;19433;51.292;6.868;2023-10-19T05:28:27;4.57;;;4.13;;
33074;SDS011;19433;51.292;6.868;2023-10-19T05:30:53;4.17;;;3.87;;
33074;SDS011;19433;51.292;6.868;2023-10-19T05:33:19;3.23;;;3.03;;
33074;SDS011;19433;51.292;6.868;2023-10-19T05:35:46;6.83;;;4.10;;
33074;SDS011;19433;51.292;6.868;2023-10-19T05:38:12;4.73;;;4.33;;
33074;SDS011;19433;51.292;6.868;2023-10-19T05:40:37;4.37;;;3.97;;
33074;SDS011;19433;51.292;6.868;2023-10-19T05:43:03;4.10;;;3.80;;
33074;SDS011;19433;51.292;6.868;2023-10-19T05:45:29;5.13;;;4.23;;
33074;SDS011;19433;51.292;6.868;2023-10-19T05:47:55;4.47;;;4.07;;
33074;SDS011;19433;51.292;6.868;2023-10-19T05:50:22;6.90;;;4.50;;
33074;SDS011;19433;51.292;6.868;2023-10-19T05:52:47;4.87;;;4.40;;
33074;SDS011;19433;51.292;6.868;2023-10-19T05:55:13;7.90;;;4.47;;
33074;SDS011;19433;51.292;6.868;2023-10-19T05:57:40;4.20;;;3.90;;
33074;SDS011;19433;51.292;6.868;2023-10-19T06:00:06;3.83;;;3.53;;
33074;SDS011;19433;51.292;6.868;2023-10-19T06:02:37;5.23;;;3.50;;
33074;SDS011;19433;51.292;6.868;2023-10-19T06:05:03;5.20;;;4.70;;
33074;SDS011;19433;51.292;6.868;2023-10-19T06:07:30;4.67;;;4.27;;
33074;SDS011;19433;51.292;6.868;2023-10-19T06:09:56;4.23;;;3.73;;
33074;SDS011;19433;51.292;6.868;2023-10-19T06:12:21;5.50;;;4.77;;
33074;SDS011;19433;51.292;6.868;2023-10-19T06:14:46;5.40;;;4.30;;
33074;SDS011;19433;51.292;6.868;2023-10-19T06:17:11;5.93;;;4.60;;
33074;SDS011;19433;51.292;6.868;2023-10-19T06:19:43;5.47;;;4.97;;
33074;SDS011;19433;51.292;6.868;2023-10-19T06:22:10;6.30;;;4.87;;
33074;SDS011;19433;51.292;6.868;2023-10-19T06:24:37;4.67;;;3.97;;
33074;SDS011;19433;51.292;6.868;2023-10-19T06:27:02;4.50;;;4.10;;
33074;SDS011;19433;51.292;6.868;2023-10-19T06:29:29;5.53;;;5.03;;
33074;SDS011;19433;51.292;6.868;2023-10-19T06:31:54;6.30;;;4.47;;
33074;SDS011;19433;51.292;6.868;2023-10-19T06:34:19;4.83;;;4.33;;
33074;SDS011;19433;51.292;6.868;2023-10-19T06:36:45;6.77;;;4.43;;
33074;SDS011;19433;51.292;6.868;2023-10-19T06:39:10;5.73;;;4.30;;
33074;SDS011;19433;51.292;6.868;2023-10-19T06:41:38;6.77;;;4.10;;
33074;SDS011;19433;51.292;6.868;2023-10-19T06:44:04;4.83;;;4.43;;
33074;SDS011;19433;51.292;6.868;2023-10-19T06:46:29;6.00;;;5.10;;
33074;SDS011;19433;51.292;6.868;2023-10-19T06:48:56;6.87;;;4.97;;
33074;SDS011;19433;51.292;6.868;2023-10-19T06:51:25;5.53;;;4.90;;
33074;SDS011;19433;51.292;6.868;2023-10-19T06:53:51;6.90;;;4.70;;
33074;SDS011;19433;51.292;6.868;2023-10-19T06:56:17;8.40;;;5.03;;
33074;SDS011;19433;51.292;6.868;2023-10-19T06:58:42;5.10;;;4.60;;
33074;SDS011;19433;51.292;6.868;2023-10-19T07:01:07;5.80;;;4.77;;
33074;SDS011;19433;51.292;6.868;2023-10-19T07:03:33;5.30;;;4.80;;
33074;SDS011;19433;51.292;6.868;2023-10-19T07:05:59;5.10;;;4.70;;
33074;SDS011;19433;51.292;6.868;2023-10-19T07:08:25;6.23;;;5.03;;
33074;SDS011;19433;51.292;6.868;2023-10-19T07:10:52;6.70;;;5.07;;
33074;SDS011;19433;51.292;6.868;2023-10-19T07:13:18;8.87;;;5.30;;
33074;SDS011;19433;51.292;6.868;2023-10-19T07:15:45;5.67;;;5.17;;
33074;SDS011;19433;51.292;6.868;2023-10-19T07:18:11;8.83;;;5.00;;
33074;SDS011;19433;51.292;6.868;2023-10-19T07:20:37;5.77;;;5.33;;
33074;SDS011;19433;51.292;6.868;2023-10-19T07:23:04;5.20;;;4.80;;
33074;SDS011;19433;51.292;6.868;2023-10-19T07:25:46;4.10;;;3.80;;
33074;SDS011;19433;51.292;6.868;2023-10-19T07:28:13;6.30;;;4.50;;
33074;SDS011;19433;51.292;6.868;2023-10-19T07:30:40;6.30;;;4.70;;
33074;SDS011;19433;51.292;6.868;2023-10-19T07:33:06;5.00;;;4.50;;
33074;SDS011;19433;51.292;6.868;2023-10-19T07:35:36;6.30;;;4.37;;
33074;SDS011;19433;51.292;6.868;2023-10-19T07:38:07;4.70;;;4.30;;
33074;SDS011;19433;51.292;6.868;2023-10-19T07:40:36;5.10;;;4.53;;
33074;SDS011;19433;51.292;6.868;2023-10-19T07:43:01;4.93;;;4.53;;
33074;SDS011;19433;51.292;6.868;2023-10-19T07:45:28;6.23;;;4.83;;
33074;SDS011;19433;51.292;6.868;2023-10-19T07:47:54;4.97;;;4.57;;
33074;SDS011;19433;51.292;6.868;2023-10-19T07:50:19;4.87;;;4.40;;
33074;SDS011;19433;51.292;6.868;2023-10-19T07:52:48;4.60;;;4.30;;
33074;SDS011;19433;51.292;6.868;2023-10-19T07:55:16;5.10;;;4.70;;
33074;SDS011;19433;51.292;6.868;2023-10-19T07:57:42;5.03;;;4.27;;
33074;SDS011;19433;51.292;6.868;2023-10-19T08:00:09;6.60;;;4.03;;
33074;SDS011;19433;51.292;6.868;2023-10-19T08:02:39;5.73;;;4.37;;
33074;SDS011;19433;51.292;6.868;2023-10-19T08:05:07;7.03;;;5.40;;
33074;SDS011;19433;51.292;6.868;2023-10-19T08:07:32;5.30;;;4.80;;
33074;SDS011;19433;51.292;6.868;2023-10-19T08:09:59;6.80;;;5.10;;
33074;SDS011;19433;51.292;6.868;2023-10-19T08:12:25;9.63;;;4.80;;
33074;SDS011;19433;51.292;6.868;2023-10-19T08:14:51;4.97;;;4.57;;
33074;SDS011;19433;51.292;6.868;2023-10-19T08:17:17;5.30;;;4.87;;
33074;SDS011;19433;51.292;6.868;2023-10-19T08:19:43;6.80;;;4.20;;
33074;SDS011;19433;51.292;6.868;2023-10-19T08:22:08;9.30;;;4.80;;
33074;SDS011;19433;51.292;6.868;2023-10-19T08:24:34;4.90;;;4.50;;
33074;SDS011;19433;51.292;6.868;2023-10-19T08:27:00;3.97;;;3.67;;
33074;SDS011;19433;51.292;6.868;2023-10-19T08:29:26;4.73;;;3.60;;
33074;SDS011;19433;51.292;6.868;2023-10-19T08:31:51;4.43;;;3.30;;
33074;SDS011;19433;51.292;6.868;2023-10-19T08:34:17;3.40;;;3.20;;
33074;SDS011;19433;51.292;6.868;2023-10-19T08:36:42;3.80;;;3.50;;
33074;SDS011;19433;51.292;6.868;2023-10-19T08:39:08;5.67;;;3.73;;
33074;SDS011;19433;51.292;6.868;2023-10-19T08:41:37;4.77;;;3.50;;
33074;SDS011;19433;51.292;6.868;2023-10-19T08:44:05;3.97;;;3.57;;
33074;SDS011;19433;51.292;6.868;2023-10-19T08:46:43;4.20;;;3.50;;
33074;SDS011;19433;51.292;6.868;2023-10-19T08:49:11;3.70;;;3.27;;
33074;SDS011;19433;51.292;6.868;2023-10-19T08:51:37;3.77;;;3.47;;
33074;SDS011;19433;51.292;6.868;2023-10-19T08:54:04;4.80;;;3.57;;
33074;SDS011;19433;51.292;6.868;2023-10-19T08:56:30;4.37;;;3.00;;
33074;SDS011;19433;51.292;6.868;2023-10-19T08:58:58;4.63;;;3.23;;
33074;SDS011;19433;51.292;6.868;2023-10-19T09:01:23;5.07;;;3.27;;
33074;SDS011;19433;51.292;6.868;2023-10-19T09:03:49;3.73;;;3.37;;
33074;SDS011;19433;51.292;6.868;2023-10-19T09:06:15;3.47;;;3.17;;
33074;SDS011;19433;51.292;6.868;2023-10-19T09:08:40;3.77;;;3.43;;
33074;SDS011;19433;51.292;6.868;2023-10-19T09:11:07;5.30;;;3.30;;
33074;SDS011;19433;51.292;6.868;2023-10-19T09:13:43;6.40;;;3.30;;
33074;SDS011;19433;51.292;6.868;2023-10-19T09:16:21;3.23;;;3.03;;
33074;SDS011;19433;51.292;6.868;2023-10-19T09:18:47;3.57;;;2.87;;
33074;SDS011;19433;51.292;6.868;2023-10-19T09:21:17;3.37;;;3.03;;
33074;SDS011;19433;51.292;6.868;2023-10-19T09:23:49;5.17;;;3.37;;
33074;SDS011;19433;51.292;6.868;2023-10-19T09:26:16;8.17;;;4.30;;
33074;SDS011;19433;51.292;6.868;2023-10-19T09:28:43;5.10;;;3.50;;
33074;SDS011;19433;51.292;6.868;2023-10-19T09:31:15;4.00;;;3.10;;
33074;SDS011;19433;51.292;6.868;2023-10-19T09:33:41;3.63;;;3.00;;
33074;SDS011;19433;51.292;6.868;2023-10-19T09:36:13;3.50;;;2.60;;
33074;SDS011;19433;51.292;6.868;2023-10-19T09:38:39;4.70;;;2.50;;
33074;SDS011;19433;51.292;6.868;2023-10-19T09:41:08;5.33;;;3.13;;
33074;SDS011;19433;51.292;6.868;2023-10-19T09:43:37;7.40;;;2.73;;
33074;SDS011;19433;51.292;6.868;2023-10-19T09:46:06;2.97;;;2.63;;
33074;SDS011;19433;51.292;6.868;2023-10-19T09:48:39;2.90;;;2.03;;
33074;SDS011;19433;51.292;6.868;2023-10-19T09:51:10;4.03;;;2.50;;
33074;SDS011;19433;51.292;6.868;2023-10-19T09:53:37;2.43;;;2.23;;
33074;SDS011;19433;51.292;6.868;2023-10-19T09:56:05;3.23;;;2.43;;
33074;SDS011;19433;51.292;6.868;2023-10-19T09:58:40;6.57;;;2.30;;
33074;SDS011;19433;51.292;6.868;2023-10-19T10:01:10;2.50;;;1.77;;
33074;SDS011;19433;51.292;6.868;2023-10-19T10:03:42;3.13;;;2.40;;
33074;SDS011;19433;51.292;6.868;2023-10-19T10:06:07;3.53;;;2.20;;
33074;SDS011;19433;51.292;6.868;2023-10-19T10:08:33;3.30;;;2.10;;
33074;SDS011;19433;51.292;6.868;2023-10-19T10:11:13;2.43;;;1.93;;
33074;SDS011;19433;51.292;6.868;2023-10-19T10:13:38;3.70;;;2.10;;
33074;SDS011;19433;51.292;6.868;2023-10-19T10:16:06;2.67;;;2.03;;
33074;SDS011;19433;51.292;6.868;2023-10-19T10:18:31;4.10;;;1.63;;
33074;SDS011;19433;51.292;6.868;2023-10-19T10:21:21;4.00;;;2.07;;
33074;SDS011;19433;51.292;6.868;2023-10-19T10:26:18;2.00;;;1.37;;
33074;SDS011;19433;51.292;6.868;2023-10-19T10:28:45;5.07;;;1.97;;
33074;SDS011;19433;51.292;6.868;2023-10-19T10:31:19;3.87;;;2.10;;
33074;SDS011;19433;51.292;6.868;2023-10-19T10:33:52;3.60;;;1.83;;
33074;SDS011;19433;51.292;6.868;2023-10-19T10:36:22;4.73;;;1.80;;
33074;SDS011;19433;51.292;6.868;2023-10-19T10:38:48;5.43;;;1.67;;
33074;SDS011;19433;51.292;6.868;2023-10-19T10:41:21;2.93;;;1.70;;
33074;SDS011;19433;51.292;6.868;2023-10-19T10:43:53;6.40;;;1.97;;
33074;SDS011;19433;51.292;6.868;2023-10-19T10:46:23;4.70;;;1.90;;
33074;SDS011;19433;51.292;6.868;2023-10-19T10:48:54;3.73;;;1.77;;
33074;SDS011;19433;51.292;6.868;2023-10-19T10:51:20;4.33;;;2.37;;
33074;SDS011;19433;51.292;6.868;2023-10-19T10:53:54;4.73;;;2.20;;
33074;SDS011;19433;51.292;6.868;2023-10-19T10:56:21;14.43;;;3.23;;
33074;SDS011;19433;51.292;6.868;2023-10-19T10:58:48;2.23;;;1.60;;
33074;SDS011;19433;51.292;6.868;2023-10-19T11:01:14;5.10;;;2.30;;
33074;SDS011;19433;51.292;6.868;2023-10-19T11:03:41;5.60;;;1.80;;
33074;SDS011;19433;51.292;6.868;2023-10-19T11:06:07;3.40;;;1.60;;
33074;SDS011;19433;51.292;6.868;2023-10-19T11:08:34;3.53;;;1.70;;
33074;SDS011;19433;51.292;6.868;2023-10-19T11:11:04;4.30;;;2.00;;
33074;SDS011;19433;51.292;6.868;2023-10-19T11:13:31;2.50;;;1.80;;
33074;SDS011;19433;51.292;6.868;2023-10-19T11:15:58;5.70;;;2.27;;
33074;SDS011;19433;51.292;6.868;2023-10-19T11:18:29;4.90;;;2.30;;
33074;SDS011;19433;51.292;6.868;2023-10-19T11:20:55;5.40;;;2.00;;
33074;SDS011;19433;51.292;6.868;2023-10-19T11:23:37;6.17;;;2.23;;
33074;SDS011;19433;51.292;6.868;2023-10-19T11:26:16;4.10;;;1.70;;
33074;SDS011;19433;51.292;6.868;2023-10-19T11:28:44;3.03;;;1.90;;
33074;SDS011;19433;51.292;6.868;2023-10-19T11:31:19;4.43;;;1.93;;
33074;SDS011;19433;51.292;6.868;2023-10-19T11:33:47;2.50;;;1.40;;
33074;SDS011;19433;51.292;6.868;2023-10-19T11:36:16;8.03;;;1.90;;
33074;SDS011;19433;51.292;6.868;2023-10-19T11:38:43;3.50;;;1.90;;
33074;SDS011;19433;51.292;6.868;2023-10-19T11:41:10;3.10;;;2.07;;
33074;SDS011;19433;51.292;6.868;2023-10-19T11:43:37;3.60;;;1.90;;
33074;SDS011;19433;51.292;6.868;2023-10-19T11:46:03;5.07;;;2.13;;
33074;SDS011;19433;51.292;6.868;2023-10-19T11:48:32;3.17;;;1.73;;
33074;SDS011;19433;51.292;6.868;2023-10-19T11:50:59;2.70;;;1.80;;
33074;SDS011;19433;51.292;6.868;2023-10-19T11:53:25;3.90;;;1.53;;
33074;SDS011;19433;51.292;6.868;2023-10-19T11:55:50;3.67;;;2.03;;
33074;SDS011;19433;51.292;6.868;2023-10-19T11:58:16;3.27;;;1.83;;
33074;SDS011;19433;51.292;6.868;2023-10-19T12:00:42;5.97;;;2.13;;
33074;SDS011;19433;51.292;6.868;2023-10-19T12:03:09;3.37;;;1.90;;
33074;SDS011;19433;51.292;6.868;2023-10-19T12:05:35;3.67;;;1.80;;
33074;SDS011;19433;51.292;6.868;2023-10-19T12:08:02;15.13;;;3.43;;
33074;SDS011;19433;51.292;6.868;2023-10-19T12:10:28;4.43;;;1.67;;
33074;SDS011;19433;51.292;6.868;2023-10-19T12:13:03;7.07;;;2.37;;
33074;SDS011;19433;51.292;6.868;2023-10-19T12:15:32;7.80;;;2.10;;
33074;SDS011;19433;51.292;6.868;2023-10-19T12:17:58;5.50;;;2.10;;
33074;SDS011;19433;51.292;6.868;2023-10-19T12:20:24;4.27;;;1.70;;
33074;SDS011;19433;51.292;6.868;2023-10-19T12:22:50;5.30;;;1.97;;
33074;SDS011;19433;51.292;6.868;2023-10-19T12:25:19;3.93;;;2.27;;
33074;SDS011;19433;51.292;6.868;2023-10-19T12:27:46;4.13;;;2.20;;
33074;SDS011;19433;51.292;6.868;2023-10-19T12:30:11;3.00;;;1.90;;
33074;SDS011;19433;51.292;6.868;2023-10-19T12:32:45;5.90;;;2.40;;
33074;SDS011;19433;51.292;6.868;2023-10-19T12:35:14;6.20;;;2.20;;
33074;SDS011;19433;51.292;6.868;2023-10-19T12:37:39;7.90;;;2.20;;
33074;SDS011;19433;51.292;6.868;2023-10-19T12:40:11;6.03;;;1.80;;
33074;SDS011;19433;51.292;6.868;2023-10-19T12:42:56;3.63;;;2.10;;
33074;SDS011;19433;51.292;6.868;2023-10-19T12:45:22;5.40;;;2.30;;
33074;SDS011;19433;51.292;6.868;2023-10-19T12:47:48;3.33;;;1.90;;
33074;SDS011;19433;51.292;6.868;2023-10-19T12:50:13;4.30;;;2.30;;
33074;SDS011;19433;51.292;6.868;2023-10-19T12:52:39;7.00;;;1.80;;
33074;SDS011;19433;51.292;6.868;2023-10-19T12:55:05;4.43;;;2.07;;
33074;SDS011;19433;51.292;6.868;2023-10-19T12:57:31;3.83;;;2.27;;
33074;SDS011;19433;51.292;6.868;2023-10-19T12:59:57;3.53;;;1.60;;
33074;SDS011;19433;51.292;6.868;2023-10-19T13:02:23;5.53;;;1.87;;
33074;SDS011;19433;51.292;6.868;2023-10-19T13:04:49;4.07;;;1.90;;
33074;SDS011;19433;51.292;6.868;2023-10-19T13:07:14;3.90;;;1.80;;
33074;SDS011;19433;51.292;6.868;2023-10-19T13:09:40;3.87;;;2.33;;
33074;SDS011;19433;51.292;6.868;2023-10-19T13:12:05;4.50;;;2.07;;
33074;SDS011;19433;51.292;6.868;2023-10-19T13:14:32;3.77;;;1.90;;
33074;SDS011;19433;51.292;6.868;2023-10-19T13:16:59;8.50;;;2.37;;
33074;SDS011;19433;51.292;6.868;2023-10-19T13:19:24;5.07;;;2.23;;
33074;SDS011;19433;51.292;6.868;2023-10-19T13:21:50;7.03;;;2.40;;
33074;SDS011;19433;51.292;6.868;2023-10-19T13:24:17;5.10;;;2.23;;
33074;SDS011;19433;51.292;6.868;2023-10-19T13:26:45;10.27;;;2.10;;
33074;SDS011;19433;51.292;6.868;2023-10-19T13:29:12;2.57;;;1.90;;
33074;SDS011;19433;51.292;6.868;2023-10-19T13:31:37;7.03;;;2.00;;
33074;SDS011;19433;51.292;6.868;2023-10-19T13:34:05;6.47;;;2.03;;
33074;SDS011;19433;51.292;6.868;2023-10-19T13:36:35;4.93;;;2.23;;
33074;SDS011;19433;51.292;6.868;2023-10-19T13:39:00;6.43;;;2.50;;
33074;SDS011;19433;51.292;6.868;2023-10-19T13:41:26;7.83;;;2.67;;
33074;SDS011;19433;51.292;6.868;2023-10-19T13:43:51;9.87;;;2.77;;
33074;SDS011;19433;51.292;6.868;2023-10-19T13:46:17;4.90;;;2.80;;
33074;SDS011;19433;51.292;6.868;2023-10-19T13:48:42;5.00;;;2.00;;
33074;SDS011;19433;51.292;6.868;2023-10-19T13:51:07;5.73;;;2.37;;
33074;SDS011;19433;51.292;6.868;2023-10-19T13:53:39;7.40;;;2.03;;
33074;SDS011;19433;51.292;6.868;2023-10-19T13:56:08;7.43;;;2.50;;
33074;SDS011;19433;51.292;6.868;2023-10-19T13:58:34;5.23;;;2.60;;
33074;SDS011;19433;51.292;6.868;2023-10-19T14:01:00;3.93;;;2.10;;
33074;SDS011;19433;51.292;6.868;2023-10-19T14:03:25;8.17;;;3.00;;
33074;SDS011;19433;51.292;6.868;2023-10-19T14:05:51;7.60;;;2.70;;
33074;SDS011;19433;51.292;6.868;2023-10-19T14:08:21;4.30;;;2.20;;
33074;SDS011;19433;51.292;6.868;2023-10-19T14:10:46;4.80;;;2.43;;
33074;SDS011;19433;51.292;6.868;2023-10-19T14:13:13;6.40;;;2.60;;
33074;SDS011;19433;51.292;6.868;2023-10-19T14:15:41;6.10;;;2.40;;
33074;SDS011;19433;51.292;6.868;2023-10-19T14:18:07;9.07;;;3.60;;
33074;SDS011;19433;51.292;6.868;2023-10-19T14:20:33;6.20;;;3.43;;
33074;SDS011;19433;51.292;6.868;2023-10-19T14:22:59;4.33;;;2.40;;
33074;SDS011;19433;51.292;6.868;2023-10-19T14:25:26;6.03;;;2.50;;
33074;SDS011;19433;51.292;6.868;2023-10-19T14:27:54;6.17;;;2.40;;
33074;SDS011;19433;51.292;6.868;2023-10-19T14:30:24;8.70;;;2.60;;
33074;SDS011;19433;51.292;6.868;2023-10-19T14:32:56;6.07;;;2.47;;
33074;SDS011;19433;51.292;6.868;2023-10-19T14:35:22;5.10;;;2.30;;
33074;SDS011;19433;51.292;6.868;2023-10-19T14:37:49;5.00;;;2.40;;
33074;SDS011;19433;51.292;6.868;2023-10-19T14:40:17;6.40;;;2.60;;
33074;SDS011;19433;51.292;6.868;2023-10-19T14:42:46;5.63;;;2.70;;
33074;SDS011;19433;51.292;6.868;2023-10-19T14:45:12;6.60;;;2.87;;
33074;SDS011;19433;51.292;6.868;2023-10-19T14:47:42;6.37;;;2.13;;
33074;SDS011;19433;51.292;6.868;2023-10-19T14:50:18;3.33;;;2.23;;
33074;SDS011;19433;51.292;6.868;2023-10-19T14:52:46;5.63;;;2.77;;
33074;SDS011;19433;51.292;6.868;2023-10-19T14:55:13;7.77;;;3.00;;
33074;SDS011;19433;51.292;6.868;2023-10-19T14:57:40;4.70;;;2.50;;